Time;durP1;ratioP1;P1;durP2;ratioP2;P2;SDS_P1;SDS_P2;PMS_P1;PMS_P2;Temp;Humidity;BMP_temperature;BMP_pressure;BME280_temperature;BME280_humidity;BME280_pressure;Samples;Min_cycle;Max_cycle;Signal;HPM_P1;HPM_P2
2022/04/29 00:00:33;;;;;;;114.35;103.70;;;10.30;61.20;;;;;;5040137;28;20050;-73
2022/04/29 00:03:01;;;;;;;114.18;103.32;;;10.30;61.30;;;;;;5053399;28;20652;-73
2022/04/29 00:05:28;;;;;;;113.68;103.18;;;10.20;61.30;;;;;;5053099;28;20458;-73
2022/04/29 00:07:55;;;;;;;113.40;102.90;;;10.20;61.20;;;;;;5054322;28;20056;-73
2022/04/29 00:10:22;;;;;;;116.68;105.22;;;10.20;61.30;;;;;;5053102;28;20103;-74
2022/04/29 00:12:49;;;;;;;115.57;104.60;;;10.20;61.50;;;;;;5036623;28;20056;-73
2022/04/29 00:15:18;;;;;;;113.40;102.80;;;10.10;61.50;;;;;;5053335;28;20140;-73
2022/04/29 00:17:47;;;;;;;115.03;104.40;;;10.10;61.60;;;;;;5036398;28;20499;-74
2022/04/29 00:20:15;;;;;;;115.28;104.47;;;10.10;61.80;;;;;;5053019;28;20509;-73
2022/04/29 00:22:44;;;;;;;115.90;104.75;;;10.10;61.90;;;;;;5053239;28;20129;-73
2022/04/29 00:25:12;;;;;;;116.82;105.80;;;10.10;61.90;;;;;;5052568;28;20388;-73
2022/04/29 00:27:40;;;;;;;116.40;105.20;;;10.00;62.00;;;;;;5052470;28;20050;-74
2022/04/29 00:30:09;;;;;;;118.53;107.32;;;10.00;62.00;;;;;;5052598;28;20045;-73
2022/04/29 00:32:36;;;;;;;115.90;104.93;;;10.00;62.10;;;;;;5034458;28;20903;-73
2022/04/29 00:35:05;;;;;;;117.90;107.00;;;10.00;62.20;;;;;;5034109;28;20504;-73
2022/04/29 00:37:32;;;;;;;118.05;107.18;;;10.00;62.50;;;;;;5033392;28;20103;-73
2022/04/29 00:39:59;;;;;;;117.68;106.88;;;9.90;62.40;;;;;;5051084;28;20061;-73
2022/04/29 00:42:27;;;;;;;119.22;108.03;;;9.80;62.50;;;;;;5034341;28;20172;-73
2022/04/29 00:44:54;;;;;;;118.45;107.53;;;9.80;62.60;;;;;;5051899;28;20045;-73
2022/04/29 00:47:22;;;;;;;119.60;108.32;;;9.80;62.70;;;;;;5035655;28;20080;-74
2022/04/29 00:49:50;;;;;;;118.15;106.90;;;9.80;62.90;;;;;;5052564;28;20519;-73
2022/04/29 00:52:20;;;;;;;117.43;106.22;;;9.70;62.90;;;;;;5052865;28;20054;-73
2022/04/29 00:54:54;;;;;;;118.70;107.10;;;9.70;63.00;;;;;;5052671;28;20385;-73
2022/04/29 00:57:25;;;;;;;118.03;106.85;;;9.70;63.00;;;;;;5035677;28;20057;-74
2022/04/29 00:59:58;;;;;;;117.93;106.32;;;9.70;63.00;;;;;;5052755;28;20778;-73
2022/04/29 01:02:25;;;;;;;115.75;105.07;;;9.70;63.10;;;;;;5052699;28;20053;-73
2022/04/29 01:04:59;;;;;;;117.70;106.35;;;9.70;63.60;;;;;;5053749;28;20469;-73
2022/04/29 01:07:29;;;;;;;118.38;106.85;;;9.60;63.50;;;;;;5052392;28;20053;-73
2022/04/29 01:09:56;;;;;;;117.25;105.90;;;9.60;63.60;;;;;;5037858;28;20499;-73
2022/04/29 01:12:26;;;;;;;116.65;105.40;;;9.60;63.60;;;;;;5073780;28;20049;-73
2022/04/29 01:14:55;;;;;;;117.32;106.15;;;9.50;63.80;;;;;;5055654;28;20048;-73
2022/04/29 01:17:22;;;;;;;116.38;105.25;;;9.40;64.00;;;;;;5073698;28;20064;-74
2022/04/29 01:19:50;;;;;;;116.72;105.45;;;9.40;64.20;;;;;;5055173;28;20095;-73
2022/04/29 01:22:18;;;;;;;117.18;106.03;;;9.40;64.30;;;;;;5055854;28;20447;-73
2022/04/29 01:24:48;;;;;;;117.68;106.47;;;9.40;64.50;;;;;;5055685;28;20041;-73
2022/04/29 01:27:17;;;;;;;116.97;106.07;;;9.30;64.60;;;;;;5055145;28;20103;-73
2022/04/29 01:29:46;;;;;;;115.78;104.95;;;9.30;64.70;;;;;;5055511;28;20053;-73
2022/04/29 01:32:13;;;;;;;117.07;105.88;;;9.30;64.90;;;;;;5055524;28;20037;-74
2022/04/29 01:34:43;;;;;;;117.40;106.22;;;9.20;64.80;;;;;;5055438;28;20505;-73
2022/04/29 01:37:11;;;;;;;117.72;106.55;;;9.20;65.00;;;;;;5054717;28;20041;-73
2022/04/29 01:39:39;;;;;;;115.95;104.95;;;9.20;65.00;;;;;;5055404;28;20081;-73
2022/04/29 01:42:07;;;;;;;115.05;104.25;;;9.10;64.90;;;;;;5055378;28;20045;-73
2022/04/29 01:44:35;;;;;;;115.53;104.47;;;9.10;64.90;;;;;;5071205;28;20056;-73
2022/04/29 01:47:02;;;;;;;116.30;105.28;;;9.10;64.80;;;;;;5054016;28;20041;-73
2022/04/29 01:49:52;;;;;;;116.53;105.53;;;9.00;64.70;;;;;;5067740;28;20079;-73
2022/04/29 01:52:19;;;;;;;115.78;104.68;;;9.00;65.10;;;;;;5058644;28;20045;-73
2022/04/29 01:54:47;;;;;;;115.68;104.50;;;9.00;64.80;;;;;;5058492;28;20133;-73
2022/04/29 01:57:14;;;;;;;117.28;106.13;;;9.00;64.80;;;;;;5058580;28;20152;-73
2022/04/29 01:59:41;;;;;;;117.03;105.68;;;9.00;64.60;;;;;;5058763;28;20045;-73
2022/04/29 02:02:19;;;;;;;114.07;103.28;;;9.00;64.50;;;;;;5058635;28;20049;-73
2022/04/29 02:04:46;;;;;;;115.60;104.80;;;9.00;64.30;;;;;;5058577;28;20064;-73
2022/04/29 02:07:16;;;;;;;117.55;106.28;;;9.00;64.20;;;;;;5058243;28;20048;-73
2022/04/29 02:09:45;;;;;;;117.13;106.05;;;9.00;64.70;;;;;;5058890;28;20071;-73
2022/04/29 02:12:15;;;;;;;117.38;106.35;;;9.00;65.10;;;;;;5058980;28;20049;-73
2022/04/29 02:14:50;;;;;;;115.45;104.55;;;9.00;65.20;;;;;;5076685;28;20052;-73
2022/04/29 02:17:21;;;;;;;116.32;105.10;;;8.90;65.30;;;;;;5058196;28;20049;-73
2022/04/29 02:19:48;;;;;;;117.15;105.65;;;8.90;65.40;;;;;;5074279;28;20049;-73
2022/04/29 02:22:15;;;;;;;116.80;105.68;;;8.80;65.30;;;;;;5056398;28;20048;-73
2022/04/29 02:24:43;;;;;;;116.45;105.53;;;8.80;65.60;;;;;;5058290;28;20055;-73
2022/04/29 02:27:10;;;;;;;119.10;107.78;;;8.80;65.90;;;;;;5057741;28;20100;-73
2022/04/29 02:29:41;;;;;;;117.57;106.20;;;8.80;66.00;;;;;;5058148;28;20045;-73
2022/04/29 02:32:17;;;;;;;117.72;106.43;;;8.80;66.30;;;;;;5074971;28;20132;-73
2022/04/29 02:34:45;;;;;;;116.72;105.47;;;8.80;66.40;;;;;;5058092;28;20045;-73
2022/04/29 02:37:20;;;;;;;116.95;105.57;;;8.80;66.40;;;;;;5068430;22;20049;31
2022/04/29 02:39:49;;;;;;;;;;;8.70;66.40;;;;;;4980470;28;19925;-73
2022/04/29 02:42:16;;;;;;;117.50;106.22;;;8.70;65.30;;;;;;5014268;28;19930;-73
2022/04/29 02:44:46;;;;;;;116.88;105.50;;;8.70;66.20;;;;;;5015160;28;20088;-73
2022/04/29 02:47:13;;;;;;;116.57;105.32;;;8.70;66.60;;;;;;5014825;28;20082;-73
2022/04/29 02:49:43;;;;;;;117.38;106.18;;;8.70;66.90;;;;;;4998501;28;20078;-73
2022/04/29 02:52:12;;;;;;;117.45;106.20;;;8.70;67.10;;;;;;4982285;28;20050;-73
2022/04/29 02:54:40;;;;;;;117.75;106.05;;;8.60;67.20;;;;;;4982096;28;20484;-73
2022/04/29 02:57:13;;;;;;;118.07;106.20;;;8.60;67.50;;;;;;4998145;28;20047;-73
2022/04/29 02:59:46;;;;;;;117.85;106.53;;;8.60;67.80;;;;;;4997672;28;20562;-74
2022/04/29 03:02:13;;;;;;;118.18;106.68;;;8.50;68.20;;;;;;4996767;28;20094;-73
2022/04/29 03:04:40;;;;;;;116.68;105.47;;;8.50;68.40;;;;;;5014486;28;20061;-73
2022/04/29 03:07:08;;;;;;;118.95;107.45;;;8.50;68.90;;;;;;4997872;28;20054;-73
2022/04/29 03:09:50;;;;;;;116.78;105.65;;;8.50;69.10;;;;;;5014312;28;20061;-73
2022/04/29 03:12:23;;;;;;;117.53;106.13;;;8.40;69.30;;;;;;5014541;28;20074;-73
2022/04/29 03:15:15;;;;;;;117.50;105.78;;;8.40;69.50;;;;;;5014595;28;20058;-73
2022/04/29 03:20:28;;;;;;;118.40;106.95;;;8.40;69.80;;;;;;5015119;28;20046;-73
2022/04/29 03:22:55;;;;;;;117.75;106.28;;;8.40;69.80;;;;;;4997846;28;20436;-73
2022/04/29 03:25:22;;;;;;;116.47;105.22;;;8.30;70.00;;;;;;4997557;28;20050;-73
2022/04/29 03:27:49;;;;;;;115.93;104.43;;;8.30;70.10;;;;;;5014064;28;20054;-73
2022/04/29 03:30:17;;;;;;;115.22;104.30;;;8.30;69.80;;;;;;5014205;28;20142;-73
2022/04/29 03:32:51;;;;;;;115.82;104.60;;;8.30;69.60;;;;;;5014257;28;20428;-73
2022/04/29 03:35:25;;;;;;;116.95;105.65;;;8.30;69.70;;;;;;5014389;28;20140;-73
2022/04/29 03:37:53;;;;;;;115.32;104.35;;;8.20;69.60;;;;;;4986201;28;20047;-73
2022/04/29 03:40:22;;;;;;;117.80;106.32;;;8.20;69.60;;;;;;4994621;28;20051;-73
2022/04/29 03:42:49;;;;;;;115.95;104.93;;;8.20;69.50;;;;;;4994095;28;20176;-73
2022/04/29 03:45:18;;;;;;;115.60;104.60;;;8.10;69.40;;;;;;4978180;28;20075;-73
2022/04/29 03:47:45;;;;;;;115.18;104.18;;;8.00;69.70;;;;;;4977451;28;20055;-73
2022/04/29 03:50:25;;;;;;;114.00;103.18;;;7.90;69.90;;;;;;4978023;28;20057;-73
2022/04/29 03:53:12;;;;;;;115.70;104.63;;;7.90;70.10;;;;;;4961536;28;20047;-73
2022/04/29 03:55:41;;;;;;;117.03;105.93;;;7.80;70.30;;;;;;4977312;28;20053;-73
2022/04/29 03:58:08;;;;;;;117.53;106.10;;;7.70;70.70;;;;;;4977369;28;20472;-73
2022/04/29 04:00:49;;;;;;;116.50;105.20;;;7.70;71.00;;;;;;4977410;28;20061;-73
2022/04/29 04:03:28;;;;;;;116.05;105.07;;;7.70;71.20;;;;;;4993549;28;20043;-73
2022/04/29 04:08:45;;;;;;;116.55;105.25;;;7.70;71.30;;;;;;4977284;28;20403;-73
2022/04/29 04:11:13;;;;;;;117.45;106.15;;;7.70;71.00;;;;;;4992842;28;20055;-73
2022/04/29 04:13:40;;;;;;;117.07;105.97;;;7.70;71.20;;;;;;5005749;28;20070;-73
2022/04/29 04:16:44;;;;;;;118.47;106.85;;;7.70;71.40;;;;;;4986835;28;20069;-73
2022/04/29 04:19:12;;;;;;;116.55;105.45;;;7.70;71.60;;;;;;4996742;28;20055;-73
2022/04/29 04:21:40;;;;;;;118.82;106.50;;;7.60;71.80;;;;;;4980515;28;20051;-73
2022/04/29 04:24:08;;;;;;;115.82;104.72;;;7.70;72.20;;;;;;4996853;28;20054;-73
2022/04/29 04:26:36;;;;;;;116.30;105.10;;;7.60;72.10;;;;;;4980432;28;20121;-73
2022/04/29 04:29:06;;;;;;;118.13;105.93;;;7.60;72.00;;;;;;4980489;28;20085;-72
2022/04/29 04:31:39;;;;;;;116.63;104.57;;;7.60;72.00;;;;;;4980586;28;20050;-73
2022/04/29 04:36:52;;;;;;;123.35;105.40;;;7.60;72.70;;;;;;4979452;28;20046;-73
2022/04/29 04:39:20;;;;;;;202.02;108.05;;;7.60;72.90;;;;;;4996310;28;20141;-73
2022/04/29 04:41:48;;;;;;;183.50;107.70;;;7.60;73.10;;;;;;4996760;28;20082;-73
2022/04/29 04:44:18;;;;;;;194.27;110.72;;;7.60;73.10;;;;;;4996649;28;20994;-73
2022/04/29 04:46:45;;;;;;;134.05;105.97;;;7.60;73.30;;;;;;4996489;28;20061;-73
2022/04/29 04:49:19;;;;;;;119.63;106.22;;;7.60;73.30;;;;;;4978544;28;20051;-73
2022/04/29 04:52:12;;;;;;;119.40;107.30;;;7.60;73.40;;;;;;4995030;28;20058;-73
2022/04/29 04:54:39;;;;;;;118.20;106.55;;;7.60;73.50;;;;;;4996567;28;20489;-73
2022/04/29 04:57:07;;;;;;;119.50;107.57;;;7.50;74.10;;;;;;4996228;28;20085;-73
2022/04/29 04:59:34;;;;;;;119.20;106.72;;;7.50;74.40;;;;;;4980402;28;20050;-73
2022/04/29 05:02:02;;;;;;;117.50;105.90;;;7.60;74.80;;;;;;4996316;28;20046;-73
2022/04/29 05:04:57;;;;;;;118.15;106.22;;;7.60;75.30;;;;;;4986225;28;20057;-73
2022/04/29 05:07:50;;;;;;;118.78;106.57;;;7.60;75.60;;;;;;4997035;28;20054;-73
2022/04/29 05:10:18;;;;;;;118.47;106.93;;;7.60;75.70;;;;;;4996501;28;20042;-73
2022/04/29 05:12:47;;;;;;;119.88;107.70;;;7.60;76.50;;;;;;4996108;28;20046;-73
2022/04/29 05:15:29;;;;;;;118.05;106.45;;;7.70;76.80;;;;;;5013830;28;20057;-75
2022/04/29 05:17:56;;;;;;;117.80;106.30;;;7.70;77.30;;;;;;4995504;28;20149;-75
2022/04/29 05:20:25;;;;;;;116.50;104.88;;;7.70;77.60;;;;;;5011515;28;20049;-75
2022/04/29 05:22:52;;;;;;;123.43;111.47;;;7.70;77.90;;;;;;4975173;28;20879;-74
2022/04/29 05:25:19;;;;;;;119.57;107.85;;;7.80;78.10;;;;;;4991713;28;20472;-75
2022/04/29 05:28:06;;;;;;;113.22;101.88;;;7.80;79.00;;;;;;4993371;28;20054;-76
2022/04/29 05:31:10;;;;;;;117.40;105.57;;;7.80;79.60;;;;;;4930872;29;20055;-75
2022/04/29 05:33:56;;;;;;;118.43;106.80;;;7.80;79.40;;;;;;5004743;28;21042;-76
2022/04/29 05:36:48;;;;;;;122.95;106.72;;;7.90;79.90;;;;;;4981975;28;20062;-75
2022/04/29 05:42:21;;;;;;;117.75;105.78;;;8.00;80.50;;;;;;4990488;28;20492;-75
2022/04/29 05:44:48;;;;;;;117.43;105.82;;;8.00;80.70;;;;;;4995939;28;20535;-75
2022/04/29 05:47:18;;;;;;;118.32;106.60;;;8.00;81.00;;;;;;4979302;28;20536;-75
2022/04/29 05:49:47;;;;;;;116.75;104.90;;;8.00;81.10;;;;;;4979277;28;20046;-75
2022/04/29 05:52:15;;;;;;;117.85;106.13;;;8.00;81.60;;;;;;4979544;28;20073;-75
2022/04/29 05:54:46;;;;;;;116.07;104.75;;;8.10;81.90;;;;;;4993596;28;20539;-75
2022/04/29 05:57:17;;;;;;;117.30;106.07;;;8.10;81.80;;;;;;4978181;28;20052;-75
2022/04/29 05:59:44;;;;;;;116.55;105.25;;;8.20;81.60;;;;;;4993907;28;20054;-75
2022/04/29 06:02:30;;;;;;;117.35;105.80;;;8.20;81.80;;;;;;4995235;28;20055;-75
2022/04/29 06:05:08;;;;;;;114.55;103.43;;;8.20;82.10;;;;;;5012225;28;20054;-75
2022/04/29 06:07:38;;;;;;;117.18;105.45;;;8.30;82.20;;;;;;4994674;28;20555;-76
2022/04/29 06:10:08;;;;;;;115.07;103.72;;;8.30;82.30;;;;;;4992821;28;20051;-77
2022/04/29 06:12:38;;;;;;;116.88;105.18;;;8.30;82.40;;;;;;4977761;28;20137;-77
2022/04/29 06:15:13;;;;;;;115.60;104.43;;;8.40;82.70;;;;;;4993382;28;20496;-75
2022/04/29 06:17:59;;;;;;;115.75;104.03;;;8.40;82.80;;;;;;4994562;28;20054;-77
2022/04/29 06:20:44;;;;;;;114.63;103.40;;;8.40;82.80;;;;;;4995304;28;20508;-74
2022/04/29 06:23:52;;;;;;;;;;;8.50;83.10;;;;;;4976626;28;20062;-75
2022/04/29 06:26:20;;;;;;;114.18;102.95;;;8.50;81.80;;;;;;5011485;28;20035;-76
2022/04/29 06:28:47;;;;;;;116.03;104.43;;;8.50;82.50;;;;;;4978609;28;20090;-76
2022/04/29 06:31:14;;;;;;;113.95;102.57;;;8.60;82.80;;;;;;4994211;28;20057;-76
2022/04/29 06:34:14;;;;;;;115.57;104.03;;;8.60;82.60;;;;;;4964307;28;20051;-76
2022/04/29 06:36:41;;;;;;;114.72;103.50;;;8.70;82.80;;;;;;5010132;28;20081;-76
2022/04/29 06:39:10;;;;;;;116.78;104.13;;;8.70;83.30;;;;;;4998371;28;20043;-76
2022/04/29 06:41:55;;;;;;;116.10;104.80;;;8.80;83.80;;;;;;5013668;28;20059;-76
2022/04/29 06:44:42;;;;;;;114.80;103.82;;;8.80;83.80;;;;;;5009625;28;20061;-76
2022/04/29 06:47:29;;;;;;;117.20;105.40;;;8.90;83.70;;;;;;4996718;28;20057;-76
2022/04/29 06:50:16;;;;;;;116.30;105.22;;;8.90;83.80;;;;;;5011959;28;20050;-76
2022/04/29 06:53:21;;;;;;;115.65;104.63;;;8.90;84.30;;;;;;4996060;28;20057;-74
2022/04/29 06:55:49;;;;;;;114.72;103.35;;;9.00;83.70;;;;;;4996849;28;20054;-75
2022/04/29 06:58:16;;;;;;;115.47;104.75;;;9.00;83.80;;;;;;4996657;28;20051;-75
2022/04/29 07:00:43;;;;;;;113.80;102.82;;;9.00;83.70;;;;;;4997242;28;20109;-75
2022/04/29 07:03:11;;;;;;;113.68;102.80;;;9.10;83.80;;;;;;4997230;28;20229;-75
2022/04/29 07:05:38;;;;;;;114.45;103.28;;;9.10;83.60;;;;;;4997757;28;20133;-75
2022/04/29 07:08:10;;;;;;;114.97;103.72;;;9.20;83.50;;;;;;4981233;28;20491;-75
2022/04/29 07:10:57;;;;;;;;;;;9.20;83.50;;;;;;5003782;28;20576;-75
2022/04/29 07:13:44;;;;;;;113.03;101.82;;;9.20;81.80;;;;;;4993388;28;19926;-75
2022/04/29 07:16:13;;;;;;;111.93;101.18;;;9.20;82.80;;;;;;4978395;28;20134;-75
2022/04/29 07:19:00;;;;;;;113.50;102.32;;;9.30;82.90;;;;;;4994322;28;20053;-75
2022/04/29 07:21:28;;;;;;;112.25;101.22;;;9.30;82.60;;;;;;4994584;28;20054;-75
2022/04/29 07:23:55;;;;;;;111.82;101.22;;;9.40;82.50;;;;;;4994945;28;20169;-75
2022/04/29 07:26:25;;;;;;;112.20;101.43;;;9.40;82.40;;;;;;4978524;28;20047;-75
2022/04/29 07:28:52;;;;;;;112.57;102.00;;;9.40;82.40;;;;;;5000798;28;20059;-75
2022/04/29 07:31:19;;;;;;;112.25;101.32;;;9.50;82.30;;;;;;4978080;28;20131;-75
2022/04/29 07:34:15;;;;;;;111.93;101.43;;;9.50;82.30;;;;;;4892756;28;20061;-75
2022/04/29 07:42:35;;;;;;;114.18;102.97;;;9.60;81.50;;;;;;4933164;28;20592;-75
2022/04/29 07:45:02;;;;;;;112.38;101.70;;;9.70;81.40;;;;;;4998316;28;20062;-75
2022/04/29 07:47:50;;;;;;;112.43;101.57;;;9.70;81.20;;;;;;5013535;28;20145;-77
2022/04/29 07:50:29;;;;;;;113.30;102.10;;;9.80;80.60;;;;;;4996926;28;20056;-80
2022/04/29 07:52:57;;;;;;;112.00;101.35;;;9.80;80.60;;;;;;4980561;28;20050;-78
2022/04/29 07:55:24;;;;;;;113.10;102.20;;;9.80;80.50;;;;;;4996103;28;20050;-75
2022/04/29 07:57:53;;;;;;;113.10;102.20;;;9.80;80.10;;;;;;4995814;28;20051;-75
2022/04/29 08:00:21;;;;;;;112.00;101.32;;;10.00;79.60;;;;;;4996471;28;20117;-75
2022/04/29 08:02:48;;;;;;;111.65;101.00;;;10.00;79.40;;;;;;5013838;28;20054;-74
2022/04/29 08:05:25;;;;;;;114.32;103.03;;;10.00;79.40;;;;;;4996456;28;20547;-74
2022/04/29 08:07:54;;;;;;;111.75;101.35;;;10.00;78.80;;;;;;4979699;28;20744;-74
2022/04/29 08:10:55;;;;;;;113.10;102.50;;;10.10;78.70;;;;;;5010458;28;20046;-75
2022/04/29 08:13:24;;;;;;;112.72;101.63;;;10.10;78.30;;;;;;5011194;28;20055;-74
2022/04/29 08:16:10;;;;;;;111.82;100.90;;;10.20;78.00;;;;;;5013869;28;20061;-74
2022/04/29 08:18:53;;;;;;;111.57;100.95;;;10.20;77.60;;;;;;4978751;28;20061;-76
2022/04/29 08:21:35;;;;;;;111.20;100.88;;;10.30;77.20;;;;;;4976875;28;20511;-76
2022/04/29 08:24:02;;;;;;;111.15;100.70;;;10.30;76.90;;;;;;4997195;28;20058;-75
2022/04/29 08:26:30;;;;;;;111.10;100.35;;;10.40;76.70;;;;;;4980146;28;20051;-75
2022/04/29 08:28:58;;;;;;;112.45;101.78;;;10.40;76.70;;;;;;5010568;28;20055;-74
2022/04/29 08:31:25;;;;;;;117.03;101.47;;;10.50;76.50;;;;;;4979964;28;20042;-75
2022/04/29 08:33:57;;;;;;;111.32;100.70;;;10.50;75.80;;;;;;4996427;28;20053;-75
2022/04/29 08:36:25;;;;;;;111.65;100.55;;;10.60;75.70;;;;;;4979004;28;20054;-75
2022/04/29 08:38:54;;;;;;;109.68;99.43;;;10.60;75.60;;;;;;4977937;28;20058;-76
2022/04/29 08:41:21;;;;;;;110.85;100.47;;;10.70;75.30;;;;;;4979942;28;20089;-75
2022/04/29 08:43:49;;;;;;;111.93;100.68;;;10.80;75.10;;;;;;4995751;28;20814;-75
2022/04/29 08:46:23;;;;;;;110.22;99.95;;;10.80;74.90;;;;;;4978316;28;20054;-75
2022/04/29 08:49:04;;;;;;;111.35;100.78;;;10.90;74.50;;;;;;4979447;28;20060;-75
2022/04/29 08:51:34;;;;;;;111.32;100.55;;;11.00;74.20;;;;;;4979359;28;20133;-76
2022/04/29 08:54:01;;;;;;;110.10;99.78;;;11.10;73.80;;;;;;5011185;28;20449;-76
2022/04/29 08:59:14;;;;;;;110.63;100.43;;;11.20;72.80;;;;;;5008741;28;20077;-76
2022/04/29 09:01:44;;;;;;;110.78;100.25;;;11.20;72.70;;;;;;4996564;28;20497;-75
2022/04/29 09:04:11;;;;;;;110.55;100.25;;;11.20;72.30;;;;;;4980071;28;20046;-76
2022/04/29 09:06:48;;;;;;;110.30;99.90;;;11.30;72.20;;;;;;4978734;28;20137;-76
2022/04/29 09:09:15;;;;;;;112.65;101.47;;;11.30;72.10;;;;;;5010865;28;20057;-76
2022/04/29 09:11:42;;;;;;;111.18;100.97;;;11.40;72.10;;;;;;4995477;28;20453;-76
2022/04/29 09:14:22;;;;;;;111.47;101.18;;;11.40;71.80;;;;;;5013201;28;20050;-76
2022/04/29 09:16:51;;;;;;;113.18;102.53;;;11.50;71.50;;;;;;5013216;28;20535;-77
2022/04/29 09:19:31;;;;;;;111.07;100.78;;;11.50;71.50;;;;;;4996065;28;20061;-76
2022/04/29 09:22:07;;;;;;;111.20;100.88;;;11.50;71.30;;;;;;5010565;28;20052;-76
2022/04/29 09:24:59;;;;;;;111.65;101.05;;;11.50;71.30;;;;;;4980410;28;20042;-76
2022/04/29 09:27:59;;;;;;;111.35;99.60;;;11.50;71.80;;;;;;4994925;28;20051;-76
2022/04/29 09:30:42;;;;;;;110.88;100.40;;;11.60;71.60;;;;;;4990753;28;20047;-77
2022/04/29 09:33:30;;;;;;;110.65;100.22;;;11.70;71.40;;;;;;4994946;28;20554;-79
2022/04/29 09:36:27;;;;;;;111.68;101.32;;;11.70;71.20;;;;;;4978591;28;20053;-76
2022/04/29 09:41:39;;;;;;;111.25;100.85;;;11.80;71.10;;;;;;5013013;28;20049;-74
2022/04/29 09:44:06;;;;;;;111.30;100.95;;;11.80;70.90;;;;;;4995628;28;20085;-73
2022/04/29 09:46:38;;;;;;;110.93;100.82;;;11.90;70.90;;;;;;4994920;28;20047;-74
2022/04/29 09:49:11;;;;;;;114.22;103.57;;;12.00;70.30;;;;;;4992359;28;20051;-73
2022/04/29 09:51:47;;;;;;;112.43;102.07;;;12.10;70.50;;;;;;4993465;28;20126;-77
2022/04/29 09:54:20;;;;;;;110.70;100.40;;;12.10;70.60;;;;;;4993512;28;20054;-75
2022/04/29 09:56:48;;;;;;;110.75;100.57;;;12.10;70.40;;;;;;5010423;28;20057;-74
2022/04/29 09:59:15;;;;;;;109.30;99.35;;;12.20;69.80;;;;;;4977592;28;20046;-74
2022/04/29 10:01:42;;;;;;;110.70;100.55;;;12.20;69.60;;;;;;4994545;28;20053;-75
2022/04/29 10:04:12;;;;;;;110.97;100.78;;;12.30;69.30;;;;;;4978383;28;20050;-74
2022/04/29 10:06:40;;;;;;;110.60;100.57;;;12.30;69.30;;;;;;5009761;28;20432;-74
2022/04/29 10:09:10;;;;;;;113.88;101.93;;;12.30;68.80;;;;;;4991941;28;20065;-75
2022/04/29 10:11:39;;;;;;;111.90;101.70;;;12.40;68.60;;;;;;4997056;28;20050;-74
2022/04/29 10:14:09;;;;;;;110.20;100.00;;;12.40;68.70;;;;;;4998912;28;20076;-74
2022/04/29 10:16:40;;;;;;;112.85;102.60;;;12.40;68.30;;;;;;4998650;28;20062;-74
2022/04/29 10:22:34;;;;;;;111.22;100.82;;;12.40;68.00;;;;;;4998858;28;20137;-74
2022/04/29 10:25:06;;;;;;;127.22;103.53;;;12.50;68.00;;;;;;4982480;28;20457;-74
2022/04/29 10:27:34;;;;;;;111.10;101.00;;;12.50;68.10;;;;;;4998580;28;20053;-74
2022/04/29 10:30:01;;;;;;;111.20;100.93;;;12.50;67.70;;;;;;4998823;28;20057;-74
2022/04/29 10:32:28;;;;;;;111.53;101.22;;;12.50;67.60;;;;;;4998776;28;20527;-74
2022/04/29 10:34:57;;;;;;;111.70;101.57;;;12.60;67.70;;;;;;4998628;28;20082;-74
2022/04/29 10:37:36;;;;;;;110.65;100.55;;;12.60;67.40;;;;;;4981834;28;20046;-75
2022/04/29 10:40:11;;;;;;;111.72;101.45;;;12.60;67.60;;;;;;5016390;28;20057;-74
2022/04/29 10:43:05;;;;;;;110.95;100.93;;;12.70;67.50;;;;;;5012459;28;20050;-75
2022/04/29 10:45:32;;;;;;;111.45;101.20;;;12.70;67.60;;;;;;4997640;28;20050;-74
2022/04/29 10:48:25;;;;;;;112.85;102.60;;;12.70;67.40;;;;;;4978915;28;20488;-74
2022/04/29 10:51:18;;;;;;;114.28;103.65;;;12.70;67.50;;;;;;5012914;28;20575;-74
2022/04/29 10:54:07;;;;;;;;;;;12.70;67.50;;;;;;4994554;28;20129;-74
2022/04/29 10:57:04;;;;;;;115.25;104.70;;;12.70;67.80;;;;;;4995707;28;19926;-74
2022/04/29 10:59:49;;;;;;;112.00;101.57;;;12.70;67.80;;;;;;5014203;28;20134;-74
2022/04/29 11:02:24;;;;;;;112.63;102.43;;;12.70;67.90;;;;;;4997241;28;20055;-75
2022/04/29 11:04:51;;;;;;;112.72;102.40;;;12.70;67.90;;;;;;4980454;28;20050;-76
2022/04/29 11:07:43;;;;;;;112.40;102.50;;;12.70;67.90;;;;;;4996679;28;20062;-76
2022/04/29 11:10:18;;;;;;;111.18;101.07;;;12.70;68.00;;;;;;4997103;28;20054;-76
2022/04/29 11:13:03;;;;;;;111.63;101.53;;;12.70;67.80;;;;;;5005238;28;20050;-76
2022/04/29 11:15:48;;;;;;;110.43;100.43;;;12.70;67.80;;;;;;4998363;28;20038;-74
2022/04/29 11:18:40;;;;;;;111.25;101.45;;;12.70;67.40;;;;;;4994216;28;20065;-76
2022/04/29 11:26:49;;;;;;;111.47;101.57;;;12.80;67.10;;;;;;4980890;28;20243;-75
2022/04/29 11:29:18;;;;;;;112.90;102.70;;;12.80;66.90;;;;;;4980906;28;20401;-75
2022/04/29 11:31:48;;;;;;;110.72;100.82;;;12.80;66.80;;;;;;5014918;28;20054;-75
2022/04/29 11:34:17;;;;;;;111.93;102.03;;;12.80;66.60;;;;;;4997844;28;20046;-74
2022/04/29 11:36:44;;;;;;;112.20;102.20;;;12.90;66.60;;;;;;4997882;28;20054;-75
2022/04/29 11:39:17;;;;;;;113.68;103.38;;;12.80;66.40;;;;;;4980477;28;20055;-76
2022/04/29 11:41:55;;;;;;;111.50;101.57;;;12.90;66.30;;;;;;5013256;28;20585;-75
2022/04/29 11:44:35;;;;;;;112.32;102.50;;;12.90;66.40;;;;;;5011933;28;20808;-76
2022/04/29 11:47:03;;;;;;;114.20;104.03;;;12.90;66.70;;;;;;4995373;28;20054;-73
2022/04/29 11:49:32;;;;;;;113.03;103.00;;;13.00;66.70;;;;;;4996862;28;20046;-73
2022/04/29 11:52:23;;;;;;;113.55;103.53;;;13.00;66.40;;;;;;4997151;28;20097;-73
2022/04/29 11:54:55;;;;;;;113.07;101.47;;;13.00;66.50;;;;;;4996401;28;20061;-74
2022/04/29 11:57:23;;;;;;;112.45;101.90;;;13.00;66.20;;;;;;4997036;28;20145;-74
2022/04/29 11:59:50;;;;;;;111.85;101.85;;;13.10;65.70;;;;;;4997274;28;20903;-75
2022/04/29 12:02:18;;;;;;;113.57;103.20;;;13.10;65.70;;;;;;4986803;28;20138;-75
2022/04/29 12:04:54;;;;;;;132.35;104.28;;;13.10;65.50;;;;;;4997092;28;20433;-75
2022/04/29 12:07:21;;;;;;;111.63;101.55;;;13.10;64.90;;;;;;4977286;28;20059;-73
2022/04/29 12:09:49;;;;;;;111.63;101.82;;;13.10;65.20;;;;;;4984156;28;20054;-74
2022/04/29 12:12:28;;;;;;;111.70;101.90;;;13.10;65.20;;;;;;4997363;28;20046;-76
2022/04/29 12:14:56;;;;;;;110.85;100.65;;;13.10;65.10;;;;;;4999668;28;20054;-75
2022/04/29 12:17:33;;;;;;;114.65;104.40;;;13.10;65.00;;;;;;5018160;28;20057;-74
2022/04/29 12:20:00;;;;;;;114.38;104.18;;;13.10;64.80;;;;;;4996679;28;20115;-74
2022/04/29 12:22:32;;;;;;;114.60;104.32;;;13.20;64.90;;;;;;4986278;28;20042;-75
2022/04/29 12:25:18;;;;;;;117.22;106.57;;;13.20;64.70;;;;;;4980467;28;20061;-76
2022/04/29 12:27:47;;;;;;;114.38;104.18;;;13.20;64.70;;;;;;4995921;28;20493;-76
2022/04/29 12:36:06;;;;;;;113.63;103.43;;;13.30;64.80;;;;;;4994806;28;20061;-77
2022/04/29 12:38:34;;;;;;;113.78;103.68;;;13.30;64.30;;;;;;4993582;28;20536;-75
2022/04/29 12:41:15;;;;;;;141.25;106.32;;;13.30;64.10;;;;;;5014208;28;20065;-75
2022/04/29 12:43:44;;;;;;;115.45;103.45;;;13.30;64.30;;;;;;5012694;28;20047;-75
2022/04/29 12:46:15;;;;;;;112.85;102.53;;;13.30;64.40;;;;;;4996331;28;20133;-74
2022/04/29 12:48:48;;;;;;;114.15;104.05;;;13.40;64.10;;;;;;4980291;28;20097;-76
2022/04/29 12:51:25;;;;;;;116.35;104.43;;;13.40;64.20;;;;;;4996734;28;20058;-76
2022/04/29 12:53:52;;;;;;;114.28;104.32;;;13.40;64.20;;;;;;4995235;28;20060;-75
2022/04/29 12:56:27;;;;;;;117.43;107.32;;;13.50;64.20;;;;;;4995090;28;20062;-76
2022/04/29 12:58:56;;;;;;;114.77;104.63;;;13.50;64.10;;;;;;5013994;28;20684;-75
2022/04/29 13:01:23;;;;;;;114.78;104.10;;;13.50;64.00;;;;;;5013054;28;20054;-77
2022/04/29 13:04:06;;;;;;;115.55;105.28;;;13.50;63.90;;;;;;5002663;28;20059;-77
2022/04/29 13:06:38;;;;;;;117.45;107.15;;;13.50;64.00;;;;;;4978841;28;20053;-77
2022/04/29 13:09:05;;;;;;;117.60;107.45;;;13.50;63.90;;;;;;4993646;28;20092;-77
2022/04/29 13:11:33;;;;;;;116.13;105.80;;;13.50;63.60;;;;;;4993760;28;20053;-77
2022/04/29 13:14:08;;;;;;;116.25;105.93;;;13.50;63.90;;;;;;4977249;28;20054;-76
2022/04/29 13:16:37;;;;;;;117.30;107.10;;;13.60;63.30;;;;;;4994088;28;20111;-76
2022/04/29 13:19:03;;;;;;;120.10;109.45;;;13.60;63.40;;;;;;5009126;28;20105;-76
2022/04/29 13:21:30;;;;;;;117.68;107.28;;;13.60;63.20;;;;;;4993450;28;20050;-76